Time;durP1;ratioP1;P1;durP2;ratioP2;P2;SDS_P1;SDS_P2;PMS_P1;PMS_P2;Temp;Humidity;BMP_temperature;BMP_pressure;BME280_temperature;BME280_humidity;BME280_pressure;Samples;Min_cycle;Max_cycle;Signal;HPM_P1;HPM_P2
2021/08/28 00:00:08;;;;;;;8.20;6.87;;;16.00;99.90;;;;;;4988695;28;20230;-68
2021/08/28 00:02:33;;;;;;;6.97;6.33;;;16.00;99.90;;;;;;4970906;28;20229;-68
2021/08/28 00:04:59;;;;;;;8.20;7.40;;;16.00;99.90;;;;;;4988588;28;20552;-68
2021/08/28 00:07:25;;;;;;;9.07;7.00;;;16.00;99.90;;;;;;4987294;28;20698;-69
2021/08/28 00:09:50;;;;;;;8.53;6.43;;;16.00;99.90;;;;;;4989589;28;20221;-68
2021/08/28 00:12:16;;;;;;;11.03;7.07;;;16.00;99.90;;;;;;4972642;28;20222;-68
2021/08/28 00:14:42;;;;;;;9.07;7.73;;;16.00;99.90;;;;;;4987342;28;20233;-68
2021/08/28 00:17:07;;;;;;;7.37;6.60;;;15.90;99.90;;;;;;4989241;28;20710;-67
2021/08/28 00:19:33;;;;;;;10.83;6.13;;;16.00;99.90;;;;;;4985286;28;20691;-70
2021/08/28 00:21:59;;;;;;;6.40;5.50;;;16.00;99.90;;;;;;4990371;28;20290;-68
2021/08/28 00:24:25;;;;;;;7.63;6.83;;;15.90;99.90;;;;;;4987162;28;20672;-68
2021/08/28 00:26:50;;;;;;;9.50;6.43;;;16.00;99.90;;;;;;5004997;28;20301;-68
2021/08/28 00:29:16;;;;;;;9.20;6.40;;;16.00;99.90;;;;;;4988676;28;20268;-68
2021/08/28 00:31:43;;;;;;;8.17;6.97;;;16.00;99.90;;;;;;4986659;28;20271;-67
2021/08/28 00:34:09;;;;;;;9.50;7.70;;;16.00;99.90;;;;;;4990692;28;20228;-68
2021/08/28 00:36:35;;;;;;;7.17;6.37;;;15.90;99.90;;;;;;4987736;28;20483;-68
2021/08/28 00:39:01;;;;;;;12.50;8.50;;;16.00;99.90;;;;;;4988528;28;20312;-68
2021/08/28 00:41:27;;;;;;;12.27;8.37;;;15.90;99.90;;;;;;4986419;28;20222;-68
2021/08/28 00:43:52;;;;;;;10.50;8.37;;;15.90;99.90;;;;;;4988091;28;20933;-67
2021/08/28 00:46:18;;;;;;;12.67;9.00;;;15.90;99.90;;;;;;4999724;28;20225;-68
2021/08/28 00:48:44;;;;;;;9.83;7.03;;;15.80;99.90;;;;;;5003236;28;20649;-67
2021/08/28 00:51:11;;;;;;;11.10;7.33;;;15.80;99.90;;;;;;4991290;28;20226;-68
2021/08/28 00:53:37;;;;;;;10.60;7.80;;;15.80;99.90;;;;;;4990505;28;20233;-67
2021/08/28 00:56:03;;;;;;;11.83;8.10;;;15.80;99.90;;;;;;4991187;28;20461;-67
2021/08/28 00:58:29;;;;;;;10.80;7.30;;;15.80;99.90;;;;;;4990031;28;20230;-68
2021/08/28 01:01:11;;;;;;;10.70;8.27;;;15.80;99.90;;;;;;4991394;28;20445;-68
2021/08/28 01:03:41;;;;;;;12.40;9.03;;;15.80;99.90;;;;;;4990469;28;20221;-67
2021/08/28 01:06:31;;;;;;;8.67;7.30;;;15.80;99.90;;;;;;4991205;28;20457;-67
2021/08/28 01:09:28;;;;;;;9.77;7.60;;;15.80;99.90;;;;;;4989537;28;20947;-68
2021/08/28 01:12:20;;;;;;;10.20;7.10;;;15.70;99.90;;;;;;4990811;28;20484;-68
2021/08/28 01:15:07;;;;;;;11.77;7.37;;;15.60;99.90;;;;;;4990235;28;20461;-68
2021/08/28 01:17:35;;;;;;;10.13;7.73;;;15.70;99.90;;;;;;4985719;28;20579;-68
2021/08/28 01:20:15;;;;;;;13.10;7.80;;;15.70;99.90;;;;;;4988194;28;20464;-67
2021/08/28 01:23:01;;;;;;;8.53;6.87;;;15.70;99.90;;;;;;5004557;28;20503;-68
2021/08/28 01:25:46;;;;;;;11.30;7.87;;;15.70;99.90;;;;;;4988380;28;20449;-68
2021/08/28 01:28:20;;;;;;;8.10;7.10;;;15.70;99.90;;;;;;5002886;28;20515;-68
2021/08/28 01:30:46;;;;;;;12.63;7.00;;;15.70;99.90;;;;;;4986186;28;20449;-68
2021/08/28 01:33:13;;;;;;;11.73;6.70;;;15.70;99.90;;;;;;4987222;28;20543;-68
2021/08/28 01:35:43;;;;;;;11.33;6.63;;;15.80;99.90;;;;;;4981959;28;20532;-68
2021/08/28 01:38:11;;;;;;;8.30;6.93;;;15.70;99.90;;;;;;4968021;28;20458;-66
2021/08/28 01:40:49;;;;;;;9.00;7.37;;;15.80;99.90;;;;;;4967837;28;20994;-68
2021/08/28 01:43:16;;;;;;;8.00;6.00;;;15.70;99.90;;;;;;4967776;28;21021;-67
2021/08/28 01:45:42;;;;;;;8.77;6.40;;;15.70;99.90;;;;;;4988262;28;20461;-68
2021/08/28 01:48:12;;;;;;;9.53;7.23;;;15.70;99.90;;;;;;4987096;28;20457;-67
2021/08/28 01:50:40;;;;;;;10.00;6.67;;;15.70;99.90;;;;;;5001833;28;20461;-68
2021/08/28 01:53:20;;;;;;;9.77;7.60;;;15.80;99.90;;;;;;4988835;28;20469;-68
2021/08/28 01:55:46;;;;;;;7.07;6.30;;;15.80;99.90;;;;;;4968704;28;20828;-68
2021/08/28 01:58:12;;;;;;;11.80;6.60;;;15.70;99.90;;;;;;4988439;28;20283;-68
2021/08/28 02:01:13;;;;;;;8.57;6.40;;;15.70;99.90;;;;;;4974217;28;20386;-68
2021/08/28 02:03:41;;;;;;;8.43;6.47;;;15.70;99.90;;;;;;4964453;28;20906;-67
2021/08/28 02:06:16;;;;;;;8.53;6.33;;;15.70;99.90;;;;;;4987134;28;20549;-67
2021/08/28 02:08:57;;;;;;;11.03;6.90;;;15.60;99.90;;;;;;4985434;28;20452;-68
2021/08/28 02:11:38;;;;;;;9.27;7.07;;;15.70;99.90;;;;;;4970717;28;20511;-68
2021/08/28 02:14:13;;;;;;;7.40;6.40;;;15.70;99.90;;;;;;4984788;28;20492;-67
2021/08/28 02:16:44;;;;;;;9.27;7.10;;;15.70;99.90;;;;;;5000948;28;20465;-68
2021/08/28 02:19:17;;;;;;;7.20;5.60;;;15.70;99.90;;;;;;4986948;28;20544;-66
2021/08/28 02:22:10;;;;;;;9.20;6.30;;;15.70;99.90;;;;;;4994467;28;20607;-68
2021/08/28 02:25:02;;;;;;;10.97;6.63;;;15.70;99.90;;;;;;5006054;28;20457;-68
2021/08/28 02:27:45;;;;;;;10.40;7.23;;;15.70;99.90;;;;;;4988615;28;20590;-68
2021/08/28 02:30:14;;;;;;;8.40;6.40;;;15.60;99.90;;;;;;4994955;28;20480;-66
2021/08/28 02:33:02;;;;;;;8.40;6.87;;;15.70;99.90;;;;;;4980361;28;20523;-68
2021/08/28 02:35:30;;;;;;;10.83;7.00;;;15.70;99.90;;;;;;4984297;28;20481;-68
2021/08/28 02:37:57;;;;;;;7.13;6.20;;;15.60;99.90;;;;;;4986803;28;20522;-68
2021/08/28 02:40:26;;;;;;;7.80;6.53;;;15.60;99.90;;;;;;4985105;28;20484;-68
2021/08/28 02:42:52;;;;;;;7.30;6.30;;;15.60;99.90;;;;;;4986607;28;20484;-68
2021/08/28 02:45:23;;;;;;;7.77;6.17;;;15.50;99.90;;;;;;4983794;28;20525;-68
2021/08/28 02:47:59;;;;;;;9.33;7.13;;;15.50;99.90;;;;;;4986528;28;20460;-68
2021/08/28 02:50:26;;;;;;;8.60;6.20;;;15.50;99.90;;;;;;4986352;28;20536;-68
2021/08/28 02:52:54;;;;;;;7.50;6.23;;;15.50;99.90;;;;;;4990403;28;20461;-68
2021/08/28 02:55:23;;;;;;;8.30;6.50;;;15.50;99.90;;;;;;4989711;28;21127;-68
2021/08/28 02:57:53;;;;;;;9.33;6.00;;;15.50;99.90;;;;;;4989448;28;20453;-68
2021/08/28 03:00:20;;;;;;;9.77;6.80;;;15.50;99.90;;;;;;5005992;28;21017;-67
2021/08/28 03:02:48;;;;;;;7.57;6.30;;;15.50;99.90;;;;;;4988301;28;20452;-68
2021/08/28 03:05:17;;;;;;;8.80;6.80;;;15.50;99.90;;;;;;4974386;28;20467;-68
2021/08/28 03:07:45;;;;;;;8.40;7.23;;;15.40;99.90;;;;;;4988896;28;20600;-68
2021/08/28 03:10:13;;;;;;;8.77;6.33;;;15.50;99.90;;;;;;4974214;28;20487;-68
2021/08/28 03:12:40;;;;;;;15.07;9.77;;;15.50;99.90;;;;;;4988075;28;20464;-68
2021/08/28 03:15:07;;;;;;;11.50;8.30;;;15.50;99.90;;;;;;4989844;28;20465;-67
2021/08/28 03:17:40;;;;;;;9.20;6.63;;;15.50;99.90;;;;;;4989107;28;20453;-68
2021/08/28 03:20:09;;;;;;;11.17;7.00;;;15.50;99.90;;;;;;4973179;28;20540;-68
2021/08/28 03:22:36;;;;;;;9.90;6.40;;;15.50;99.90;;;;;;5000386;28;20486;-68
2021/08/28 03:25:05;;;;;;;7.33;6.60;;;15.50;99.90;;;;;;5009330;28;20531;-68
2021/08/28 03:27:32;;;;;;;7.67;6.87;;;15.40;99.90;;;;;;5007287;28;21031;-68
2021/08/28 03:30:00;;;;;;;12.97;7.23;;;15.40;99.90;;;;;;5009706;28;20674;-67
2021/08/28 03:32:26;;;;;;;8.20;6.83;;;15.40;99.90;;;;;;5007314;28;20483;-68
2021/08/28 03:34:53;;;;;;;9.50;6.70;;;15.40;99.90;;;;;;4986358;28;20496;-68
2021/08/28 03:37:20;;;;;;;8.07;6.20;;;15.40;99.90;;;;;;4987727;28;20234;-68
2021/08/28 03:39:46;;;;;;;8.23;6.83;;;15.40;99.90;;;;;;4987531;28;20456;-68
2021/08/28 03:42:12;;;;;;;9.67;6.43;;;15.40;99.90;;;;;;4973128;28;20465;-68
2021/08/28 03:44:40;;;;;;;9.77;6.60;;;15.40;99.90;;;;;;4987592;28;20543;-68
2021/08/28 03:47:12;;;;;;;8.03;6.70;;;15.40;99.90;;;;;;5004851;28;20460;-67
2021/08/28 03:49:37;;;;;;;8.70;6.60;;;15.40;99.90;;;;;;4988276;28;21007;-68
2021/08/28 03:52:03;;;;;;;8.93;6.80;;;15.30;99.90;;;;;;4987896;28;20454;-68
2021/08/28 03:54:29;;;;;;;8.40;6.70;;;15.30;99.90;;;;;;4986521;28;20749;-67
2021/08/28 03:56:55;;;;;;;7.80;6.47;;;15.30;99.90;;;;;;4987691;28;20225;-68
2021/08/28 03:59:21;;;;;;;8.57;6.77;;;15.30;99.90;;;;;;4989241;28;20482;-68
2021/08/28 04:01:49;;;;;;;9.17;6.87;;;15.30;99.90;;;;;;4987802;28;20734;-68
2021/08/28 04:04:26;;;;;;;9.40;5.90;;;15.30;99.90;;;;;;4987479;28;20468;-68
2021/08/28 04:06:51;;;;;;;7.00;6.17;;;15.30;99.90;;;;;;4988445;28;20461;-67
2021/08/28 04:09:17;;;;;;;7.97;6.67;;;15.30;99.90;;;;;;4988633;28;20233;-68
2021/08/28 04:11:44;;;;;;;8.00;6.30;;;15.30;99.90;;;;;;4987461;28;20772;-68
2021/08/28 04:14:10;;;;;;;7.90;6.50;;;15.30;99.90;;;;;;4972323;28;20843;-68
2021/08/28 04:16:36;;;;;;;10.53;6.17;;;15.30;99.90;;;;;;4987319;28;20469;-68
2021/08/28 04:19:04;;;;;;;7.77;6.30;;;15.30;99.90;;;;;;4973364;28;20228;-68
2021/08/28 04:21:43;;;;;;;6.70;5.37;;;15.30;99.90;;;;;;4992652;28;20864;-68
2021/08/28 04:24:21;;;;;;;5.90;5.30;;;15.20;99.90;;;;;;5006485;28;20988;-68
2021/08/28 04:27:19;;;;;;;6.87;5.73;;;15.30;99.90;;;;;;4979317;28;20476;-68
2021/08/28 04:29:45;;;;;;;11.37;7.97;;;15.20;99.90;;;;;;4986983;28;20464;-68
2021/08/28 04:32:10;;;;;;;6.77;5.90;;;15.30;99.90;;;;;;4988632;28;20247;-67
2021/08/28 04:34:36;;;;;;;7.70;6.67;;;15.20;99.90;;;;;;4969954;28;20237;-68
2021/08/28 04:37:02;;;;;;;10.40;6.40;;;15.20;99.90;;;;;;4988803;28;20226;-68
2021/08/28 04:39:33;;;;;;;7.73;6.37;;;15.20;99.90;;;;;;4986741;28;20465;-68
2021/08/28 04:42:00;;;;;;;13.17;7.20;;;15.20;99.90;;;;;;4988314;28;20465;-68
2021/08/28 04:44:27;;;;;;;7.40;6.37;;;15.20;99.90;;;;;;4986777;28;20463;-68
2021/08/28 04:46:53;;;;;;;9.33;7.10;;;15.20;99.90;;;;;;4977885;28;20536;-68
2021/08/28 04:49:20;;;;;;;8.00;6.03;;;15.20;99.90;;;;;;4988344;28;20226;-68
2021/08/28 04:52:08;;;;;;;6.73;6.03;;;15.20;99.90;;;;;;4988025;28;20468;-67
2021/08/28 04:54:36;;;;;;;7.03;5.63;;;15.20;99.90;;;;;;4986451;28;20544;-68
2021/08/28 04:57:02;;;;;;;8.50;5.93;;;15.20;99.90;;;;;;4987472;28;20573;-68
2021/08/28 04:59:28;;;;;;;5.97;5.30;;;15.20;99.90;;;;;;4969852;28;20279;-68
2021/08/28 05:02:11;;;;;;;8.83;5.90;;;15.20;99.90;;;;;;4973950;28;20230;-67
2021/08/28 05:04:44;;;;;;;8.10;7.30;;;15.20;99.90;;;;;;4987147;28;20469;-68
2021/08/28 05:07:11;;;;;;;8.07;6.50;;;15.20;99.90;;;;;;4971163;28;20548;-68
2021/08/28 05:10:10;;;;;;;6.80;5.47;;;15.20;99.90;;;;;;4959634;28;20667;-68
2021/08/28 05:12:37;;;;;;;5.87;5.30;;;15.20;99.90;;;;;;4976298;28;21044;-68
2021/08/28 05:15:17;;;;;;;7.57;6.23;;;15.20;99.90;;;;;;4989586;28;20465;-68
2021/08/28 05:18:03;;;;;;;7.87;5.90;;;15.20;99.90;;;;;;4987850;28;20457;-68
2021/08/28 05:20:28;;;;;;;8.57;6.07;;;15.20;99.90;;;;;;4969116;28;20484;-68
2021/08/28 05:23:12;;;;;;;7.70;6.57;;;15.10;99.90;;;;;;4990836;28;20468;-68
2021/08/28 05:25:56;;;;;;;11.97;6.23;;;15.20;99.90;;;;;;4969582;28;20519;-68
2021/08/28 05:28:22;;;;;;;9.50;6.57;;;15.20;99.90;;;;;;4984622;28;20838;-68
2021/08/28 05:30:48;;;;;;;6.70;4.97;;;15.10;99.90;;;;;;4982585;28;20454;-68
2021/08/28 05:33:17;;;;;;;6.70;6.03;;;15.20;99.90;;;;;;4991578;28;20345;-68
2021/08/28 05:35:43;;;;;;;6.90;5.53;;;15.20;99.90;;;;;;4985334;28;20534;-68
2021/08/28 05:38:09;;;;;;;6.43;5.40;;;15.20;99.90;;;;;;4987766;28;20461;-68
2021/08/28 05:40:36;;;;;;;6.63;4.97;;;15.20;99.90;;;;;;4985046;28;20539;-68
2021/08/28 05:43:02;;;;;;;6.93;5.73;;;15.10;99.90;;;;;;4986178;28;20587;-67
2021/08/28 05:45:46;;;;;;;9.70;5.67;;;15.20;99.90;;;;;;4986651;28;20702;-69
2021/08/28 05:48:12;;;;;;;6.50;5.53;;;15.20;99.90;;;;;;4993952;28;20555;-68
2021/08/28 05:50:38;;;;;;;4.47;4.07;;;15.20;99.90;;;;;;4968612;28;20548;-68
2021/08/28 05:53:04;;;;;;;5.90;5.30;;;15.20;99.90;;;;;;4970902;28;20229;-67
2021/08/28 05:55:29;;;;;;;5.60;5.00;;;15.20;99.90;;;;;;4985000;28;20237;-68
2021/08/28 05:57:55;;;;;;;8.47;5.03;;;15.20;99.90;;;;;;5003702;28;20260;-68
2021/08/28 06:00:21;;;;;;;6.27;4.67;;;15.20;99.90;;;;;;4985590;28;20302;-68
2021/08/28 06:02:59;;;;;;;5.43;4.93;;;15.20;99.90;;;;;;4984842;28;20213;-68
2021/08/28 06:05:26;;;;;;;6.13;5.53;;;15.20;99.90;;;;;;4985066;28;20467;-68
2021/08/28 06:08:27;;;;;;;6.00;5.40;;;15.20;99.90;;;;;;4972290;28;20460;-68
2021/08/28 06:10:56;;;;;;;5.83;5.23;;;15.30;99.90;;;;;;4982475;28;21000;-68
2021/08/28 06:13:40;;;;;;;5.03;4.30;;;15.20;99.90;;;;;;4984561;28;20480;-68
2021/08/28 06:16:17;;;;;;;5.83;5.23;;;15.20;99.90;;;;;;4987915;28;20472;-68
2021/08/28 06:18:42;;;;;;;6.00;5.40;;;15.30;99.90;;;;;;4985294;28;20461;-68
2021/08/28 06:21:08;;;;;;;5.23;4.73;;;15.30;99.90;;;;;;4987709;28;20229;-68
2021/08/28 06:23:34;;;;;;;5.53;5.03;;;15.30;99.90;;;;;;4987869;28;20279;-68
2021/08/28 06:26:23;;;;;;;6.90;4.80;;;15.30;99.90;;;;;;4994612;28;20304;-69
2021/08/28 06:28:49;;;;;;;5.43;4.37;;;15.30;99.90;;;;;;4969118;28;20540;-68
2021/08/28 06:31:15;;;;;;;6.97;4.97;;;15.30;99.90;;;;;;4986066;28;20920;-67
2021/08/28 06:33:41;;;;;;;4.90;4.30;;;15.30;99.90;;;;;;4984780;28;20663;-68
2021/08/28 06:36:07;;;;;;;6.10;4.73;;;15.30;99.90;;;;;;4983247;28;20269;-68
2021/08/28 06:38:51;;;;;;;4.83;4.17;;;15.30;99.90;;;;;;5000724;28;20596;-68
2021/08/28 06:41:35;;;;;;;5.43;4.37;;;15.30;99.90;;;;;;4985154;28;20885;-67
2021/08/28 06:44:19;;;;;;;6.50;5.57;;;15.40;99.90;;;;;;4986788;28;20483;-67
2021/08/28 06:47:03;;;;;;;4.73;4.33;;;15.40;99.90;;;;;;4998019;28;20571;-67
2021/08/28 06:49:48;;;;;;;7.90;4.70;;;15.40;99.90;;;;;;4992915;28;20456;-67
2021/08/28 06:52:31;;;;;;;5.53;4.63;;;15.40;99.90;;;;;;4998048;28;20522;-68
2021/08/28 06:55:16;;;;;;;5.53;4.93;;;15.40;99.90;;;;;;4986480;28;20548;-68
2021/08/28 06:58:00;;;;;;;4.03;3.67;;;15.40;99.90;;;;;;4986483;28;20475;-68
2021/08/28 07:00:45;;;;;;;5.13;4.60;;;15.40;99.90;;;;;;4986651;28;20532;-67
2021/08/28 07:03:29;;;;;;;5.27;4.77;;;15.40;99.90;;;;;;4985512;28;20499;-68
2021/08/28 07:05:55;;;;;;;5.80;4.80;;;15.40;99.90;;;;;;5008219;28;20841;-67
2021/08/28 07:08:23;;;;;;;5.23;4.83;;;15.40;99.90;;;;;;4986335;28;20232;-67
2021/08/28 07:10:49;;;;;;;5.27;4.70;;;15.50;99.90;;;;;;4984258;28;20464;-68
2021/08/28 07:13:15;;;;;;;6.40;5.13;;;15.50;99.90;;;;;;4985977;28;20233;-67
2021/08/28 07:15:41;;;;;;;5.60;4.87;;;15.50;99.90;;;;;;4983404;28;20234;-68
2021/08/28 07:18:12;;;;;;;5.00;4.50;;;15.50;99.90;;;;;;4987175;28;20476;-67
2021/08/28 07:20:38;;;;;;;7.93;5.33;;;15.50;99.90;;;;;;4968254;28;20496;-68
2021/08/28 07:23:05;;;;;;;5.47;4.67;;;15.50;99.90;;;;;;5002268;28;20248;-67
2021/08/28 07:25:50;;;;;;;5.93;4.50;;;15.50;99.90;;;;;;5007515;28;20514;-68
2021/08/28 07:28:15;;;;;;;6.10;4.80;;;15.50;99.90;;;;;;5005660;28;20489;-67
2021/08/28 07:31:19;;;;;;;6.17;4.40;;;15.60;99.90;;;;;;4993229;28;20324;-67
2021/08/28 07:33:52;;;;;;;5.13;4.63;;;15.60;99.90;;;;;;4971305;28;20522;-68
2021/08/28 07:36:18;;;;;;;6.47;5.83;;;15.60;99.90;;;;;;4976184;28;21002;-68
2021/08/28 07:38:45;;;;;;;5.90;5.40;;;15.60;99.90;;;;;;4987084;28;20484;-68
2021/08/28 07:41:11;;;;;;;5.20;4.60;;;15.70;99.90;;;;;;5005417;28;20485;-68
2021/08/28 07:43:37;;;;;;;12.17;8.43;;;15.70;99.90;;;;;;4987576;28;20625;-67
2021/08/28 07:46:04;;;;;;;11.97;7.10;;;15.60;99.90;;;;;;4989241;28;20456;-68
2021/08/28 07:48:33;;;;;;;17.57;8.87;;;15.70;99.90;;;;;;4982226;28;20486;-68
2021/08/28 07:50:59;;;;;;;16.33;10.10;;;15.70;99.90;;;;;;5009473;28;20464;-68
2021/08/28 07:53:25;;;;;;;22.53;11.63;;;15.70;99.90;;;;;;5007159;28;20259;-68
2021/08/28 07:55:57;;;;;;;27.63;14.87;;;15.70;99.90;;;;;;5000935;28;20469;-68
2021/08/28 07:58:23;;;;;;;24.27;12.70;;;15.70;99.90;;;;;;4988816;28;20461;-68
2021/08/28 08:00:49;;;;;;;16.80;11.00;;;15.80;99.90;;;;;;4985713;28;20464;-67
2021/08/28 08:03:15;;;;;;;14.50;9.00;;;15.80;99.90;;;;;;4987434;28;20226;-68
2021/08/28 08:05:59;;;;;;;15.87;8.50;;;15.80;99.90;;;;;;4972552;28;20467;-68
2021/08/28 08:09:00;;;;;;;9.47;6.67;;;15.80;99.90;;;;;;4984215;28;20472;-67
2021/08/28 08:11:44;;;;;;;7.70;6.33;;;15.80;99.90;;;;;;5000085;28;20452;-68
2021/08/28 08:14:29;;;;;;;9.93;5.50;;;15.80;99.90;;;;;;4990878;28;20472;-68
2021/08/28 08:17:14;;;;;;;9.30;4.47;;;15.80;99.90;;;;;;4991064;28;20981;-67
2021/08/28 08:19:59;;;;;;;7.07;5.37;;;15.90;99.90;;;;;;4992244;28;20459;-68
2021/08/28 08:23:01;;;;;;;8.00;4.93;;;15.90;99.90;;;;;;4931679;28;20478;-68
2021/08/28 08:25:47;;;;;;;10.00;5.10;;;15.90;99.90;;;;;;4954225;28;20446;-68
2021/08/28 08:28:13;;;;;;;4.67;3.90;;;15.90;99.90;;;;;;4972636;28;21062;-67
2021/08/28 08:31:05;;;;;;;5.23;4.30;;;15.90;99.90;;;;;;4972691;28;20485;-68
2021/08/28 08:33:31;;;;;;;5.30;4.30;;;15.90;99.90;;;;;;4989015;28;20472;-68
2021/08/28 08:35:57;;;;;;;6.00;3.90;;;15.90;99.90;;;;;;4991386;28;20469;-68
2021/08/28 08:38:25;;;;;;;6.43;4.97;;;15.90;99.90;;;;;;4991613;28;21139;-69
2021/08/28 08:40:51;;;;;;;3.90;3.60;;;16.00;99.90;;;;;;4991185;28;20453;-68
2021/08/28 08:43:17;;;;;;;5.10;4.60;;;16.00;99.90;;;;;;4990957;28;20472;-68
2021/08/28 08:45:45;;;;;;;5.70;4.23;;;16.00;99.90;;;;;;4991094;28;20225;-68
2021/08/28 08:48:13;;;;;;;4.73;3.90;;;16.00;99.90;;;;;;5006387;28;20694;-68
2021/08/28 08:50:40;;;;;;;4.43;3.37;;;16.00;99.90;;;;;;4995923;28;20870;-68
2021/08/28 08:53:08;;;;;;;4.40;3.90;;;16.00;99.90;;;;;;4991178;28;20457;-67
2021/08/28 08:55:39;;;;;;;4.27;3.80;;;16.00;99.90;;;;;;4984136;28;20470;-68
2021/08/28 08:58:06;;;;;;;4.63;3.70;;;16.10;99.90;;;;;;4987363;28;20441;-68
2021/08/28 09:00:33;;;;;;;6.57;4.17;;;16.10;99.90;;;;;;4990883;28;20950;-68
2021/08/28 09:03:28;;;;;;;4.30;3.90;;;16.10;99.90;;;;;;4976871;28;20543;-68
2021/08/28 09:06:00;;;;;;;3.93;3.50;;;16.10;99.90;;;;;;4975745;28;20821;-68
2021/08/28 09:08:28;;;;;;;3.97;3.57;;;16.20;99.90;;;;;;4989594;28;20472;-68
2021/08/28 09:10:54;;;;;;;4.20;3.80;;;16.20;99.90;;;;;;4991058;28;20814;-68
2021/08/28 09:13:24;;;;;;;3.47;3.17;;;16.20;99.90;;;;;;4977754;28;20272;-68
2021/08/28 09:15:55;;;;;;;3.30;3.10;;;16.20;99.90;;;;;;4989963;28;20734;-68
2021/08/28 09:18:21;;;;;;;3.83;3.30;;;16.20;99.90;;;;;;4990820;28;20453;-68
2021/08/28 09:20:47;;;;;;;4.50;3.63;;;16.20;99.90;;;;;;4990544;28;20487;-68
2021/08/28 09:23:15;;;;;;;5.00;3.87;;;16.30;99.90;;;;;;4985978;28;20489;-67
2021/08/28 09:25:43;;;;;;;4.93;3.80;;;16.30;99.90;;;;;;4988148;28;20450;-68
2021/08/28 09:28:10;;;;;;;3.63;3.33;;;16.30;99.90;;;;;;5002947;28;20450;-68
2021/08/28 09:30:38;;;;;;;3.60;3.10;;;16.30;99.90;;;;;;4982193;28;20520;-68
2021/08/28 09:33:09;;;;;;;3.50;2.97;;;16.40;99.90;;;;;;4994345;28;20481;-68
2021/08/28 09:35:39;;;;;;;6.03;3.37;;;16.40;99.90;;;;;;4984178;28;20484;-68
2021/08/28 09:38:08;;;;;;;3.90;3.60;;;16.40;99.90;;;;;;5002991;28;20460;-68
2021/08/28 09:40:39;;;;;;;4.10;3.80;;;16.50;99.90;;;;;;4969113;28;20472;-68
2021/08/28 09:43:16;;;;;;;4.00;3.70;;;16.50;99.90;;;;;;4986472;28;21065;-67
2021/08/28 09:45:43;;;;;;;4.23;3.43;;;16.50;99.90;;;;;;4983935;28;20514;-68
2021/08/28 09:48:11;;;;;;;3.60;3.30;;;16.50;99.90;;;;;;5001393;28;20452;-68
2021/08/28 09:50:49;;;;;;;6.40;3.50;;;16.60;99.90;;;;;;5000719;28;20469;-68
2021/08/28 09:53:17;;;;;;;5.00;3.70;;;16.60;99.90;;;;;;4986665;28;20469;-68
2021/08/28 09:55:44;;;;;;;5.70;3.37;;;16.60;99.90;;;;;;4984992;28;20481;-68
2021/08/28 09:58:11;;;;;;;4.57;3.43;;;16.70;99.90;;;;;;4985555;28;20476;-68
2021/08/28 10:00:44;;;;;;;9.87;3.90;;;16.70;99.90;;;;;;4999484;28;20460;-68
2021/08/28 10:03:11;;;;;;;4.13;3.27;;;16.70;99.90;;;;;;4987905;28;20472;-67
2021/08/28 10:05:38;;;;;;;3.40;3.10;;;16.70;99.90;;;;;;4979909;28;20935;-68
2021/08/28 10:08:06;;;;;;;3.77;3.20;;;16.70;99.90;;;;;;4985874;28;20465;-68
2021/08/28 10:10:34;;;;;;;3.73;3.40;;;16.70;99.90;;;;;;4998019;28;20456;-68
2021/08/28 10:13:01;;;;;;;4.90;3.40;;;16.70;99.90;;;;;;4985351;28;20828;-68
2021/08/28 10:15:28;;;;;;;3.73;3.07;;;16.80;99.90;;;;;;4982986;28;21004;-68
2021/08/28 10:17:56;;;;;;;3.33;3.03;;;16.80;99.90;;;;;;4986020;28;20484;-68
2021/08/28 10:20:23;;;;;;;2.83;2.57;;;16.80;99.90;;;;;;4985896;28;20541;-68
2021/08/28 10:22:54;;;;;;;7.63;4.47;;;16.90;99.90;;;;;;4997812;28;20456;-68
2021/08/28 10:25:22;;;;;;;3.60;3.30;;;16.90;99.90;;;;;;5005414;28;20745;-68
2021/08/28 10:27:49;;;;;;;4.00;3.63;;;16.90;99.90;;;;;;5003502;28;20448;-68
2021/08/28 10:30:17;;;;;;;3.43;3.13;;;16.90;99.90;;;;;;4988080;28;20480;-67
2021/08/28 10:32:43;;;;;;;3.20;3.00;;;17.00;99.90;;;;;;4987473;28;20518;-68
2021/08/28 10:35:13;;;;;;;2.67;2.50;;;17.00;99.90;;;;;;4983773;28;20556;-68
2021/08/28 10:37:39;;;;;;;4.73;2.73;;;17.00;99.90;;;;;;4984456;28;20551;-68
2021/08/28 10:40:33;;;;;;;2.80;2.60;;;17.00;99.90;;;;;;4968757;28;20445;-68
2021/08/28 10:43:03;;;;;;;3.00;2.80;;;17.00;99.90;;;;;;4985645;28;20457;-68
2021/08/28 10:45:35;;;;;;;3.07;2.60;;;17.10;99.90;;;;;;4984393;28;20961;-68
2021/08/28 10:48:53;;;;;;;2.90;2.60;;;17.10;99.90;;;;;;4986779;28;20494;-68
2021/08/28 10:51:31;;;;;;;3.67;2.67;;;17.10;99.90;;;;;;4989731;28;21005;-67
2021/08/28 10:54:06;;;;;;;3.03;2.60;;;17.10;99.90;;;;;;4985414;28;20457;-68
2021/08/28 10:57:02;;;;;;;2.50;2.30;;;17.20;99.90;;;;;;4970914;28;20483;-69
2021/08/28 10:59:32;;;;;;;2.70;2.50;;;17.20;99.90;;;;;;4960520;28;20452;-68
2021/08/28 11:02:08;;;;;;;3.03;2.77;;;17.20;99.90;;;;;;4985688;28;20532;-68
2021/08/28 11:04:42;;;;;;;4.43;2.73;;;17.20;99.90;;;;;;4983711;28;20464;-67
2021/08/28 11:07:23;;;;;;;2.77;2.57;;;17.20;99.90;;;;;;4985630;28;20469;-68
2021/08/28 11:10:01;;;;;;;2.50;2.30;;;17.30;99.90;;;;;;4983935;28;20467;-68
2021/08/28 11:12:26;;;;;;;1.83;1.73;;;17.30;99.90;;;;;;4968691;28;20476;-68
2021/08/28 11:14:52;;;;;;;2.20;2.03;;;17.30;99.90;;;;;;4987771;28;20557;-69
2021/08/28 11:17:17;;;;;;;2.60;2.40;;;17.30;99.90;;;;;;4989604;28;20243;-68
2021/08/28 11:19:49;;;;;;;2.47;2.27;;;17.40;99.90;;;;;;4987296;28;20237;-68
2021/08/28 11:22:23;;;;;;;2.70;2.50;;;17.40;99.90;;;;;;4980315;28;20228;-68
2021/08/28 11:24:57;;;;;;;2.37;2.27;;;17.40;99.90;;;;;;4993246;28;20460;-68
2021/08/28 11:27:38;;;;;;;2.90;2.70;;;17.40;99.90;;;;;;4989575;28;21016;-68
2021/08/28 11:30:04;;;;;;;3.17;2.93;;;17.40;99.90;;;;;;4989672;28;20488;-68
2021/08/28 11:32:30;;;;;;;2.67;2.47;;;17.50;99.90;;;;;;4987019;28;20851;-68
2021/08/28 11:34:58;;;;;;;2.53;2.33;;;17.50;99.90;;;;;;4988678;28;20477;-68
2021/08/28 11:37:30;;;;;;;2.87;2.67;;;17.60;99.90;;;;;;4988522;28;20480;-68
2021/08/28 11:40:00;;;;;;;3.87;3.37;;;17.60;99.90;;;;;;4988832;28;20464;-69
2021/08/28 11:42:27;;;;;;;5.63;3.03;;;17.70;99.90;;;;;;4987721;28;20469;-69
2021/08/28 11:44:55;;;;;;;3.37;3.07;;;17.70;99.90;;;;;;4988784;28;20548;-68
2021/08/28 11:47:21;;;;;;;4.00;3.50;;;17.90;99.90;;;;;;5006795;28;20460;-68
2021/08/28 11:49:51;;;;;;;4.37;3.97;;;18.00;99.90;;;;;;5002762;28;20499;-68
2021/08/28 11:52:18;;;;;;;3.93;3.40;;;18.10;99.90;;;;;;4972292;28;20457;-68
2021/08/28 11:54:47;;;;;;;4.20;3.80;;;18.10;99.90;;;;;;4986217;28;20543;-68
2021/08/28 11:57:19;;;;;;;4.87;3.30;;;18.10;99.90;;;;;;4988281;28;20481;-68
2021/08/28 11:59:45;;;;;;;3.63;3.33;;;18.20;99.90;;;;;;4967334;28;20457;-67
2021/08/28 12:02:11;;;;;;;2.80;2.30;;;18.20;99.90;;;;;;4980965;28;20468;-68
2021/08/28 12:04:37;;;;;;;7.20;5.80;;;18.20;99.90;;;;;;4986337;28;20308;-68
2021/08/28 12:07:05;;;;;;;6.03;4.80;;;18.20;99.90;;;;;;4988911;28;20457;-68
2021/08/28 12:09:32;;;;;;;5.40;4.70;;;18.20;99.90;;;;;;4986876;28;21192;-68
2021/08/28 12:11:59;;;;;;;3.83;3.43;;;18.30;99.90;;;;;;4983551;28;20472;-68
2021/08/28 12:14:27;;;;;;;3.73;3.33;;;18.30;99.90;;;;;;4969027;28;20994;-68
2021/08/28 12:16:54;;;;;;;3.40;3.10;;;18.40;99.90;;;;;;4986665;28;20993;-71
2021/08/28 12:19:22;;;;;;;3.33;2.87;;;18.40;99.90;;;;;;4985377;28;20453;-70
2021/08/28 12:22:00;;;;;;;2.87;2.67;;;18.40;99.90;;;;;;4992130;28;20846;-71
2021/08/28 12:24:27;;;;;;;2.63;2.40;;;18.40;99.90;;;;;;5006814;28;20467;-71
2021/08/28 12:26:57;;;;;;;4.07;2.60;;;18.30;99.90;;;;;;4992272;28;20464;-71
2021/08/28 12:29:27;;;;;;;2.37;2.17;;;18.30;99.90;;;;;;4988734;28;20462;-71
2021/08/28 12:32:00;;;;;;;2.50;2.30;;;18.30;99.90;;;;;;4971600;28;21037;-71
2021/08/28 12:34:32;;;;;;;2.80;2.40;;;18.30;99.90;;;;;;4986336;28;20476;-72
2021/08/28 12:37:00;;;;;;;5.53;2.53;;;18.40;99.90;;;;;;4987591;28;20500;-71
2021/08/28 12:39:27;;;;;;;2.70;2.50;;;18.40;99.90;;;;;;4969150;28;20453;-71
2021/08/28 12:41:53;;;;;;;2.80;2.20;;;18.40;99.90;;;;;;4987707;28;20465;-70
2021/08/28 12:44:19;;;;;;;2.77;2.50;;;18.40;99.90;;;;;;4987542;28;20544;-71
2021/08/28 12:46:48;;;;;;;2.50;2.10;;;18.40;99.90;;;;;;4985158;28;21050;-71
2021/08/28 12:49:32;;;;;;;2.30;2.10;;;18.40;99.90;;;;;;4987905;28;20222;-70
2021/08/28 12:52:04;;;;;;;3.03;2.80;;;18.40;99.90;;;;;;4986516;28;20571;-71
2021/08/28 12:54:58;;;;;;;3.77;3.27;;;18.40;99.90;;;;;;4985414;28;20476;-71
2021/08/28 12:57:29;;;;;;;3.20;2.90;;;18.40;99.90;;;;;;4968347;28;20870;-71
2021/08/28 13:00:06;;;;;;;4.27;3.47;;;18.50;99.90;;;;;;4951289;28;20473;-71
2021/08/28 13:02:35;;;;;;;2.63;2.43;;;18.50;99.90;;;;;;4981461;28;20509;-71
2021/08/28 13:05:03;;;;;;;2.80;2.60;;;18.50;99.90;;;;;;4970835;28;20497;-70
2021/08/28 13:07:28;;;;;;;2.83;2.50;;;18.50;99.90;;;;;;4985742;28;20515;-70